createdAt,value
2022-08-17T00:00:43.296Z,45.52
2022-08-17T00:01:24.143Z,45.52
2022-08-17T00:02:25.887Z,45.52
2022-08-17T00:03:23.224Z,45.52
2022-08-17T00:04:22.524Z,45.52
2022-08-17T00:05:22.766Z,45.62
2022-08-17T00:06:23.006Z,45.52
2022-08-17T00:07:23.273Z,45.52
2022-08-17T00:08:23.506Z,45.62
2022-08-17T00:09:23.759Z,45.62
2022-08-17T00:10:23.997Z,45.62
2022-08-17T00:11:24.249Z,45.62
2022-08-17T00:12:42.845Z,45.62
2022-08-17T00:13:25.821Z,45.62
2022-08-17T00:14:25.118Z,45.62
2022-08-17T00:15:25.359Z,45.62
2022-08-17T00:16:56.423Z,45.62
2022-08-17T00:17:27.682Z,45.62
2022-08-17T00:19:00.394Z,45.62
2022-08-17T00:19:27.350Z,45.62
2022-08-17T00:20:32.173Z,45.62
2022-08-17T00:21:27.891Z,45.62
2022-08-17T00:22:31.643Z,45.72
2022-08-17T00:23:28.461Z,45.62
2022-08-17T00:24:27.762Z,45.62
2022-08-17T00:25:28.002Z,45.62
2022-08-17T00:26:43.416Z,45.62
2022-08-17T00:27:30.292Z,45.62
2022-08-17T00:28:28.734Z,45.62
2022-08-17T00:29:29.023Z,45.72
2022-08-17T00:30:29.269Z,45.72
2022-08-17T00:31:29.503Z,45.72
2022-08-17T00:33:12.120Z,45.72
2022-08-17T00:33:31.838Z,45.72
2022-08-17T00:34:30.265Z,45.72
2022-08-17T00:35:30.575Z,45.72
2022-08-17T00:36:30.846Z,45.72
2022-08-17T00:37:31.096Z,45.72
2022-08-17T00:38:31.336Z,45.72
2022-08-17T00:39:31.663Z,45.72
2022-08-17T00:40:39.998Z,45.72
2022-08-17T00:41:33.148Z,45.72
2022-08-17T00:42:32.448Z,45.72
2022-08-17T00:43:32.699Z,45.72
2022-08-17T00:44:33.757Z,45.72
2022-08-17T00:45:33.180Z,45.72
2022-08-17T00:46:33.429Z,45.72
2022-08-17T00:47:33.679Z,45.72
2022-08-17T00:48:33.932Z,45.82
2022-08-17T00:49:35.336Z,45.82
2022-08-17T00:50:34.512Z,45.82
2022-08-17T00:51:34.770Z,45.82
2022-08-17T00:52:35.012Z,45.82
2022-08-17T00:53:35.252Z,45.82
2022-08-17T00:54:42.061Z,45.82
2022-08-17T00:55:36.782Z,45.82
2022-08-17T00:56:35.963Z,45.82
2022-08-17T00:57:36.230Z,45.82
2022-08-17T00:58:36.845Z,45.82
2022-08-17T00:59:37.574Z,45.82
2022-08-17T01:00:37.044Z,45.82
2022-08-17T01:01:37.329Z,45.82
2022-08-17T01:02:51.741Z,45.82
2022-08-17T01:03:38.797Z,45.82
2022-08-17T01:04:38.905Z,45.82
2022-08-17T01:05:38.338Z,45.82
2022-08-17T01:06:38.636Z,45.82
2022-08-17T01:07:38.966Z,45.82
2022-08-17T01:08:39.208Z,45.82
2022-08-17T01:09:39.467Z,45.82
2022-08-17T01:10:59.736Z,45.82
2022-08-17T01:11:40.969Z,45.92
2022-08-17T01:12:40.187Z,45.92
2022-08-17T01:13:41.582Z,45.82
2022-08-17T01:14:41.579Z,45.92
2022-08-17T01:15:41.030Z,45.82
2022-08-17T01:16:42.261Z,45.92
2022-08-17T01:17:41.561Z,45.92
2022-08-17T01:18:41.807Z,45.92
2022-08-17T01:19:42.891Z,45.92
2022-08-17T01:20:48.169Z,45.92
2022-08-17T01:21:43.553Z,45.92
2022-08-17T01:22:42.930Z,45.92
2022-08-17T01:23:43.125Z,45.92
2022-08-17T01:24:43.381Z,45.92
2022-08-17T01:25:43.624Z,45.92
2022-08-17T01:26:44.867Z,45.92
2022-08-17T01:27:44.153Z,45.92
2022-08-17T01:28:55.084Z,45.92
2022-08-17T01:29:46.442Z,45.92
2022-08-17T01:30:58.911Z,45.92
2022-08-17T01:31:46.123Z,45.92
2022-08-17T01:32:45.503Z,45.92
2022-08-17T01:33:45.725Z,45.92
2022-08-17T01:34:50.316Z,45.94
2022-08-17T01:35:47.016Z,46.04
2022-08-17T01:36:46.439Z,45.92
2022-08-17T01:37:46.686Z,46.04
2022-08-17T01:38:46.932Z,45.94
2022-08-17T01:39:47.226Z,46.04
2022-08-17T01:40:48.285Z,46.04
2022-08-17T01:41:48.798Z,45.94
2022-08-17T01:42:48.245Z,46.04
2022-08-17T01:43:48.408Z,46.04
2022-08-17T01:44:48.649Z,46.04
2022-08-17T01:45:49.719Z,46.04
2022-08-17T01:46:50.239Z,46.04
2022-08-17T01:47:49.566Z,46.04
2022-08-17T01:48:49.801Z,46.04
2022-08-17T01:49:50.051Z,46.04
2022-08-17T01:50:51.932Z,46.04
2022-08-17T01:51:50.620Z,46.04
2022-08-17T01:52:51.103Z,46.04
2022-08-17T01:53:51.142Z,46.04
2022-08-17T01:54:51.400Z,46.04
2022-08-17T01:55:51.694Z,46.04
2022-08-17T01:56:52.781Z,46.04
2022-08-17T01:57:52.206Z,46.04
2022-08-17T01:58:52.467Z,46.04
2022-08-17T01:59:52.685Z,46.14
2022-08-17T02:01:00.954Z,46.04
2022-08-17T02:01:54.219Z,46.14
2022-08-17T02:02:53.456Z,46.14
2022-08-17T02:04:01.124Z,46.14
2022-08-17T02:04:54.927Z,46.14
2022-08-17T02:05:54.234Z,46.14
2022-08-17T02:06:55.300Z,46.14
2022-08-17T02:08:00.312Z,46.14
2022-08-17T02:09:02.518Z,46.14
2022-08-17T02:09:56.217Z,46.14
2022-08-17T02:10:55.508Z,46.14
2022-08-17T02:11:56.609Z,46.14
2022-08-17T02:12:56.021Z,46.14
2022-08-17T02:13:57.878Z,46.14
2022-08-17T02:14:57.500Z,46.14
2022-08-17T02:15:56.809Z,46.14
2022-08-17T02:16:57.860Z,46.14
2022-08-17T02:17:57.295Z,46.14
2022-08-17T02:18:57.530Z,46.14
2022-08-17T02:19:57.780Z,46.14
2022-08-17T02:20:58.020Z,46.14
2022-08-17T02:21:59.111Z,46.14
2022-08-17T02:22:58.541Z,46.14
2022-08-17T02:23:58.782Z,46.24
2022-08-17T02:25:01.914Z,46.14
2022-08-17T02:25:59.282Z,46.14
2022-08-17T02:26:59.523Z,46.14
2022-08-17T02:27:59.772Z,46.14
2022-08-17T02:29:00.005Z,46.14
2022-08-17T02:30:00.263Z,46.14
2022-08-17T02:31:03.234Z,46.24
2022-08-17T02:32:00.837Z,46.24
2022-08-17T02:33:04.013Z,46.24
2022-08-17T02:34:04.592Z,46.24
2022-08-17T02:35:01.597Z,46.24
2022-08-17T02:36:01.837Z,46.24
2022-08-17T02:37:02.897Z,46.24
2022-08-17T02:38:02.317Z,46.24
2022-08-17T02:39:02.559Z,46.24
2022-08-17T02:40:02.915Z,46.24
2022-08-17T02:41:03.137Z,46.24
2022-08-17T02:42:03.403Z,46.24
2022-08-17T02:43:03.639Z,46.24
2022-08-17T02:44:03.899Z,46.24
2022-08-17T02:45:04.141Z,46.24
2022-08-17T02:46:04.389Z,46.24
2022-08-17T02:47:05.449Z,46.24
2022-08-17T02:48:04.871Z,46.24
2022-08-17T02:49:05.113Z,46.24
2022-08-17T02:50:05.352Z,46.24
2022-08-17T02:51:05.609Z,46.24
2022-08-17T02:52:06.728Z,46.24
2022-08-17T02:53:06.272Z,46.24
2022-08-17T02:54:39.078Z,46.24
2022-08-17T02:55:07.683Z,46.24
2022-08-17T02:56:06.985Z,46.24
2022-08-17T02:57:07.234Z,46.24
2022-08-17T02:58:07.484Z,46.24
2022-08-17T02:59:07.730Z,46.24
2022-08-17T03:00:07.974Z,46.24
2022-08-17T03:01:08.224Z,46.24
2022-08-17T03:02:09.318Z,46.24
2022-08-17T03:03:08.724Z,46.24
2022-08-17T03:04:09.020Z,46.24
2022-08-17T03:05:09.265Z,46.24
2022-08-17T03:06:09.507Z,46.24
2022-08-17T03:07:10.559Z,46.34
2022-08-17T03:08:13.126Z,46.34
2022-08-17T03:09:10.258Z,46.34
2022-08-17T03:10:10.499Z,46.34
2022-08-17T03:11:10.747Z,46.34
2022-08-17T03:12:11.011Z,46.34
2022-08-17T03:13:11.258Z,46.34
2022-08-17T03:14:11.510Z,46.34
2022-08-17T03:15:11.750Z,46.34
2022-08-17T03:16:12.000Z,46.34
2022-08-17T03:17:17.043Z,46.34
2022-08-17T03:18:24.616Z,46.34
2022-08-17T03:19:13.735Z,46.34
2022-08-17T03:20:13.042Z,46.34
2022-08-17T03:21:13.285Z,46.34
2022-08-17T03:22:35.864Z,46.34
2022-08-17T03:23:14.821Z,46.34
2022-08-17T03:24:14.123Z,46.34
2022-08-17T03:25:14.425Z,46.34
2022-08-17T03:26:16.307Z,46.34
2022-08-17T03:27:14.974Z,46.34
2022-08-17T03:28:15.225Z,46.34
2022-08-17T03:29:15.465Z,46.34
2022-08-17T03:30:15.706Z,46.34
2022-08-17T03:31:15.966Z,46.34
2022-08-17T03:32:16.186Z,46.34
2022-08-17T03:33:16.478Z,46.34
2022-08-17T03:34:16.726Z,46.34
2022-08-17T03:35:16.973Z,46.34
2022-08-17T03:36:17.323Z,46.34
2022-08-17T03:37:17.658Z,46.34
2022-08-17T03:38:17.886Z,46.34
2022-08-17T03:39:18.129Z,46.34
2022-08-17T03:40:18.370Z,46.34
2022-08-17T03:41:19.599Z,46.34
2022-08-17T03:42:32.301Z,46.34
2022-08-17T03:43:20.172Z,46.34
2022-08-17T03:44:19.470Z,46.34
2022-08-17T03:45:19.711Z,46.34
2022-08-17T03:46:28.293Z,46.34
2022-08-17T03:47:21.181Z,46.34
2022-08-17T03:48:21.302Z,46.34
2022-08-17T03:49:20.732Z,46.34
2022-08-17T03:50:20.973Z,46.44
2022-08-17T03:51:21.220Z,46.34
2022-08-17T03:52:21.464Z,46.44
2022-08-17T03:53:23.383Z,46.44
2022-08-17T03:54:21.954Z,46.44
2022-08-17T03:55:22.192Z,46.44
2022-08-17T03:56:23.423Z,46.46
2022-08-17T03:57:22.729Z,46.44
2022-08-17T03:58:22.966Z,46.44
2022-08-17T03:59:24.029Z,46.44
2022-08-17T04:00:23.496Z,46.44
2022-08-17T04:01:23.781Z,46.44
2022-08-17T04:02:24.053Z,46.46
2022-08-17T04:03:24.288Z,46.46
2022-08-17T04:04:27.464Z,46.44
2022-08-17T04:05:24.836Z,46.46
2022-08-17T04:06:25.089Z,46.46
2022-08-17T04:07:25.329Z,46.44
2022-08-17T04:08:25.570Z,46.46
2022-08-17T04:09:26.630Z,46.46
2022-08-17T04:10:26.565Z,46.46
2022-08-17T04:11:26.350Z,46.46
2022-08-17T04:12:26.601Z,46.46
2022-08-17T04:13:26.841Z,46.46
2022-08-17T04:14:27.103Z,46.46
2022-08-17T04:15:27.341Z,46.46
2022-08-17T04:16:27.582Z,46.44
2022-08-17T04:17:27.846Z,46.46
2022-08-17T04:18:28.083Z,46.46
2022-08-17T04:19:29.140Z,46.46
2022-08-17T04:20:28.563Z,46.46
2022-08-17T04:21:28.813Z,46.46
2022-08-17T04:22:32.622Z,46.46
2022-08-17T04:23:30.304Z,46.46
2022-08-17T04:24:30.465Z,46.46
2022-08-17T04:25:29.896Z,46.46
2022-08-17T04:26:53.214Z,46.46
2022-08-17T04:27:31.367Z,46.46
2022-08-17T04:28:30.669Z,46.46
2022-08-17T04:29:54.291Z,46.46
2022-08-17T04:30:32.156Z,46.46
2022-08-17T04:31:31.461Z,46.46
2022-08-17T04:32:59.365Z,46.46
2022-08-17T04:33:32.990Z,46.46
2022-08-17T04:34:33.108Z,46.56
2022-08-17T04:35:32.545Z,46.46
2022-08-17T04:36:32.767Z,46.56
2022-08-17T04:37:33.015Z,46.56
2022-08-17T04:38:33.261Z,46.56
2022-08-17T04:39:34.351Z,46.56
2022-08-17T04:40:33.772Z,46.46
2022-08-17T04:41:34.011Z,46.56
2022-08-17T04:42:34.269Z,46.56
2022-08-17T04:43:34.512Z,46.56
2022-08-17T04:44:37.424Z,46.56
2022-08-17T04:51:11.227Z,46.56
2022-08-17T04:52:29.750Z,46.56
2022-08-17T04:53:12.829Z,46.56
2022-08-17T04:54:12.130Z,46.56
2022-08-17T04:55:12.359Z,46.56
2022-08-17T04:56:16.705Z,46.56
2022-08-17T04:57:12.950Z,46.56
2022-08-17T04:58:13.200Z,46.56
2022-08-17T04:59:13.450Z,46.56
2022-08-17T05:00:13.682Z,46.56
2022-08-17T05:01:13.978Z,46.56
2022-08-17T05:02:14.253Z,46.56
2022-08-17T05:03:14.502Z,46.56
2022-08-17T05:04:33.506Z,46.56
2022-08-17T05:05:15.972Z,46.56
2022-08-17T05:06:15.263Z,46.56
2022-08-17T05:07:18.665Z,46.56
2022-08-17T05:08:16.795Z,46.56
2022-08-17T05:09:16.105Z,46.56
2022-08-17T05:10:16.353Z,46.56
2022-08-17T05:11:16.606Z,46.56
2022-08-17T05:12:16.855Z,46.56
2022-08-17T05:13:17.113Z,46.56
2022-08-17T05:14:17.366Z,46.56
2022-08-17T05:15:17.627Z,46.56
2022-08-17T05:16:17.898Z,46.56
2022-08-17T05:17:18.146Z,46.56
2022-08-17T05:18:18.404Z,46.56
2022-08-17T05:19:18.668Z,46.56
2022-08-17T05:20:18.904Z,46.46
2022-08-17T05:21:19.157Z,46.46
2022-08-17T05:22:19.407Z,46.46
2022-08-17T05:23:19.668Z,46.46
2022-08-17T05:24:38.751Z,46.46
2022-08-17T05:25:21.148Z,46.46
2022-08-17T05:26:26.821Z,46.36
2022-08-17T05:27:21.653Z,46.36
2022-08-17T05:28:24.083Z,46.36
2022-08-17T05:29:22.191Z,46.36
2022-08-17T05:30:22.472Z,46.36
2022-08-17T05:31:21.782Z,46.36
2022-08-17T05:32:38.735Z,46.36
2022-08-17T05:33:23.294Z,46.36
2022-08-17T05:34:22.616Z,46.95
2022-08-17T05:35:22.872Z,46.53
2022-08-17T05:36:41.622Z,46.44
2022-08-17T05:37:24.392Z,46.34
2022-08-17T05:38:23.731Z,46.44
2022-08-17T05:39:24.120Z,46.53
2022-08-17T05:40:24.275Z,46.53
2022-08-17T05:41:24.551Z,46.34
2022-08-17T05:42:24.903Z,46.53
2022-08-17T05:43:25.134Z,46.73
2022-08-17T05:44:25.405Z,46.64
2022-08-17T05:45:55.244Z,46.44
2022-08-17T05:46:26.965Z,46.73
2022-08-17T05:47:26.255Z,46.64
2022-08-17T05:48:39.208Z,46.64
2022-08-17T05:49:27.795Z,46.73
2022-08-17T05:50:29.768Z,46.83
2022-08-17T05:51:27.397Z,46.93
2022-08-17T05:52:27.687Z,47.03
2022-08-17T05:53:27.988Z,47.33
2022-08-17T05:54:28.256Z,47.33
2022-08-17T05:55:28.525Z,47.43
2022-08-17T05:56:29.537Z,47.53
2022-08-17T05:57:29.016Z,47.53
2022-08-17T05:58:29.340Z,47.73
2022-08-17T05:59:29.612Z,47.73
2022-08-17T06:00:30.623Z,47.73
2022-08-17T06:01:30.246Z,47.95
2022-08-17T06:02:30.452Z,48.05
2022-08-17T06:03:30.721Z,48.14
2022-08-17T06:04:30.992Z,48.05
2022-08-17T06:05:31.306Z,47.95
2022-08-17T06:06:31.746Z,48.05
2022-08-17T06:07:31.832Z,48.05
2022-08-17T06:08:32.582Z,47.95
2022-08-17T06:09:33.985Z,47.95
2022-08-17T06:10:32.680Z,48.05
2022-08-17T06:11:32.943Z,48.13
2022-08-17T06:12:33.233Z,48.02
2022-08-17T06:13:33.475Z,47.92
2022-08-17T06:14:33.745Z,47.83
2022-08-17T06:15:34.068Z,47.63
2022-08-17T06:16:34.872Z,47.63
2022-08-17T06:17:34.574Z,47.53
2022-08-17T06:18:34.846Z,47.53
2022-08-17T06:19:35.116Z,47.53
2022-08-17T06:20:35.376Z,47.53
2022-08-17T06:21:35.655Z,47.53
2022-08-17T06:22:35.927Z,47.63
2022-08-17T06:23:36.199Z,47.63
2022-08-17T06:24:36.477Z,47.63
2022-08-17T06:25:36.758Z,47.63
2022-08-17T06:26:41.088Z,47.73
2022-08-17T06:27:38.270Z,47.63
2022-08-17T06:28:37.607Z,47.53
2022-08-17T06:29:37.870Z,47.43
2022-08-17T06:30:57.633Z,47.43
2022-08-17T06:31:39.371Z,47.43
2022-08-17T06:32:38.700Z,47.43
2022-08-17T06:33:38.972Z,47.43
2022-08-17T06:34:39.241Z,47.43
2022-08-17T06:35:39.522Z,47.43
2022-08-17T06:36:39.741Z,47.23
2022-08-17T06:37:40.013Z,47.23
2022-08-17T06:38:40.292Z,47.13
2022-08-17T06:39:40.619Z,47.13
2022-08-17T06:40:40.895Z,47.33
2022-08-17T06:41:41.163Z,47.33
2022-08-17T06:43:02.716Z,47.33
2022-08-17T06:43:46.216Z,47.33
2022-08-17T06:44:51.112Z,47.31
2022-08-17T06:45:43.249Z,47.41
2022-08-17T06:46:42.566Z,47.41
2022-08-17T06:47:42.839Z,47.41
2022-08-17T06:48:43.115Z,47.50
2022-08-17T06:49:43.385Z,47.50
2022-08-17T06:50:43.668Z,47.61
2022-08-17T06:51:43.943Z,47.50
2022-08-17T06:52:46.397Z,47.50
2022-08-17T06:53:44.551Z,47.50
2022-08-17T06:54:45.787Z,47.50
2022-08-17T06:55:45.146Z,47.50
2022-08-17T06:56:52.653Z,47.50
2022-08-17T06:57:46.649Z,47.50
2022-08-17T06:58:45.989Z,47.41
2022-08-17T06:59:54.867Z,47.50
2022-08-17T07:00:47.659Z,47.41
2022-08-17T07:01:46.759Z,47.50
2022-08-17T07:02:53.260Z,47.50
2022-08-17T07:03:48.272Z,47.31
2022-08-17T07:04:47.600Z,47.38
2022-08-17T07:05:47.914Z,47.38
2022-08-17T07:06:48.191Z,47.28
2022-08-17T07:07:48.451Z,47.38
2022-08-17T07:08:48.721Z,47.38
2022-08-17T07:09:48.992Z,47.38
2022-08-17T07:10:49.262Z,47.28
2022-08-17T07:11:49.533Z,47.19
2022-08-17T07:12:49.996Z,47.09
2022-08-17T07:13:51.850Z,47.09
2022-08-17T07:14:50.394Z,47.09
2022-08-17T07:15:53.972Z,47.09
2022-08-17T07:16:51.903Z,47.09
2022-08-17T07:17:51.235Z,46.98
2022-08-17T07:18:51.508Z,46.98
2022-08-17T07:19:51.772Z,46.97
2022-08-17T07:20:52.095Z,46.97
2022-08-17T07:21:52.355Z,47.06
2022-08-17T07:22:59.695Z,46.97
2022-08-17T07:23:53.877Z,46.86
2022-08-17T07:24:53.206Z,46.86
2022-08-17T07:25:53.467Z,46.77
2022-08-17T07:26:53.737Z,46.77
2022-08-17T07:27:54.008Z,46.86
2022-08-17T07:28:54.278Z,46.77
2022-08-17T07:29:54.538Z,46.67
2022-08-17T07:30:54.808Z,46.47
2022-08-17T07:31:55.079Z,46.45
2022-08-17T07:32:55.321Z,47.14
2022-08-17T07:33:55.597Z,47.04
2022-08-17T07:34:55.870Z,47.04
2022-08-17T07:35:56.138Z,46.84
2022-08-17T07:36:56.411Z,46.74
2022-08-17T07:37:56.682Z,46.64
2022-08-17T07:38:56.971Z,46.55
2022-08-17T07:40:15.456Z,46.55
2022-08-17T07:40:58.491Z,46.35
2022-08-17T07:41:59.037Z,46.23
2022-08-17T07:42:58.054Z,46.12
2022-08-17T07:43:58.332Z,45.93
2022-08-17T07:44:58.614Z,45.83
2022-08-17T07:45:58.884Z,46.12
2022-08-17T07:46:59.164Z,45.93
2022-08-17T07:47:59.444Z,46.12
2022-08-17T07:48:59.724Z,46.03
2022-08-17T07:49:59.992Z,45.93
2022-08-17T07:51:00.265Z,46.12
2022-08-17T07:52:48.517Z,46.03
2022-08-17T07:53:01.816Z,46.01
2022-08-17T07:54:13.578Z,46.11
2022-08-17T08:05:48.823Z,45.49
2022-08-17T08:06:25.877Z,45.59
2022-08-17T08:07:25.197Z,45.59
2022-08-17T08:08:25.465Z,45.59
2022-08-17T08:09:25.726Z,45.47
2022-08-17T08:10:26.061Z,46.06
2022-08-17T08:11:26.320Z,45.86
2022-08-17T08:12:33.463Z,45.57
2022-08-17T08:13:27.836Z,45.47
2022-08-17T08:14:28.516Z,45.86
2022-08-17T08:15:27.470Z,45.86
2022-08-17T08:16:27.730Z,45.64
2022-08-17T08:17:27.999Z,45.35
2022-08-17T08:18:53.563Z,45.45
2022-08-17T08:19:29.523Z,45.25
2022-08-17T08:20:52.623Z,45.15
2022-08-17T08:21:30.083Z,45.45
2022-08-17T08:22:29.402Z,45.45
2022-08-17T08:23:29.672Z,45.52
2022-08-17T08:24:30.735Z,45.82
2022-08-17T08:25:30.233Z,45.32
2022-08-17T08:26:30.504Z,45.62
2022-08-17T08:27:30.772Z,45.72
2022-08-17T08:28:31.035Z,45.52
2022-08-17T08:29:31.324Z,45.72
2022-08-17T08:30:33.178Z,45.62
2022-08-17T08:31:31.925Z,45.60
2022-08-17T08:32:32.196Z,45.10
2022-08-17T08:33:32.504Z,45.10
2022-08-17T08:34:47.431Z,45.10
2022-08-17T08:35:34.023Z,45.10
2022-08-17T08:37:15.933Z,45.60
2022-08-17T08:37:39.112Z,45.01
2022-08-17T08:38:34.877Z,45.20
2022-08-17T08:39:34.245Z,45.10
2022-08-17T08:40:34.497Z,45.30
2022-08-17T08:41:34.768Z,45.60
2022-08-17T08:42:35.019Z,46.07
2022-08-17T08:43:35.300Z,45.67
2022-08-17T08:45:01.151Z,45.18
2022-08-17T08:45:36.831Z,44.98
2022-08-17T08:46:36.141Z,45.48
2022-08-17T08:47:36.399Z,45.38
2022-08-17T08:48:53.391Z,44.69
2022-08-17T08:50:03.014Z,45.38
2022-08-17T08:50:38.764Z,45.18
2022-08-17T08:51:37.491Z,44.96
2022-08-17T08:52:37.763Z,45.36
2022-08-17T08:53:38.043Z,45.46
2022-08-17T08:54:38.312Z,44.67
2022-08-17T08:55:38.590Z,44.47
2022-08-17T08:56:38.913Z,44.57
2022-08-17T08:57:39.209Z,44.57
2022-08-17T08:58:41.992Z,44.87
2022-08-17T08:59:42.053Z,44.47
2022-08-17T09:00:40.086Z,44.67
2022-08-17T09:01:40.423Z,45.16
2022-08-17T09:02:40.653Z,44.96
2022-08-17T09:03:52.345Z,44.87
2022-08-17T09:05:10.679Z,45.14
2022-08-17T09:05:42.516Z,45.04
2022-08-17T09:06:41.837Z,44.55
2022-08-17T09:07:42.107Z,45.24
2022-08-17T09:08:42.377Z,45.34
2022-08-17T09:09:42.711Z,45.14
2022-08-17T09:10:42.962Z,45.24
2022-08-17T09:12:02.183Z,45.21
2022-08-17T09:12:44.438Z,45.02
2022-08-17T09:13:43.749Z,45.31
2022-08-17T09:14:46.701Z,45.31
2022-08-17T09:15:44.280Z,45.31
2022-08-17T09:16:44.530Z,45.12
2022-08-17T09:17:44.789Z,44.23
2022-08-17T09:19:02.576Z,44.33
2022-08-17T09:19:46.285Z,44.80
2022-08-17T09:20:50.074Z,44.60
2022-08-17T09:21:48.516Z,44.60
2022-08-17T09:22:46.123Z,44.21
2022-08-17T09:23:46.394Z,44.40
2022-08-17T09:24:46.654Z,44.31
2022-08-17T09:25:46.922Z,44.70
2022-08-17T09:26:47.183Z,44.40
2022-08-17T09:27:47.464Z,44.90
2022-08-17T09:28:48.684Z,45.68
2022-08-17T09:29:48.029Z,44.80
2022-08-17T09:30:48.305Z,45.09
2022-08-17T09:31:49.475Z,44.80
2022-08-17T09:32:48.857Z,45.19
2022-08-17T09:33:49.162Z,45.49
2022-08-17T09:34:49.436Z,45.49
2022-08-17T09:35:49.727Z,45.98
2022-08-17T09:36:50.010Z,46.28
2022-08-17T09:37:50.538Z,45.78
2022-08-17T09:38:50.653Z,46.18
2022-08-17T09:39:50.943Z,46.06
2022-08-17T09:40:51.219Z,45.47
2022-08-17T09:41:51.508Z,45.76
2022-08-17T09:42:51.770Z,45.56
2022-08-17T09:43:52.080Z,45.47
2022-08-17T09:44:52.351Z,45.27
2022-08-17T09:45:52.628Z,45.17
2022-08-17T09:46:52.890Z,45.07
2022-08-17T09:47:53.280Z,45.07
2022-08-17T09:48:53.450Z,45.07
2022-08-17T09:49:53.753Z,44.98
2022-08-17T09:51:04.285Z,45.17
2022-08-17T09:51:55.287Z,44.98
2022-08-17T09:52:54.614Z,44.98
2022-08-17T09:53:54.885Z,44.98
2022-08-17T09:54:55.153Z,44.88
2022-08-17T09:55:55.424Z,44.78
2022-08-17T09:57:29.312Z,44.48
2022-08-17T09:58:15.458Z,44.09
2022-08-17T09:59:14.816Z,44.29
2022-08-17T10:00:15.127Z,44.09
2022-08-17T10:01:15.320Z,44.09
2022-08-17T10:02:15.596Z,44.19
2022-08-17T10:03:15.888Z,44.09
2022-08-17T10:04:19.882Z,43.52
2022-08-17T10:05:16.418Z,43.82
2022-08-17T10:57:08.746Z,45.60
2022-08-17T10:58:08.987Z,45.50
2022-08-17T10:59:09.247Z,45.50
2022-08-17T11:00:09.498Z,45.50
2022-08-17T11:01:09.881Z,45.50
2022-08-17T11:02:09.988Z,45.40
2022-08-17T11:03:10.240Z,45.40
2022-08-17T11:04:10.490Z,45.40
2022-08-17T11:05:10.749Z,45.30
2022-08-17T11:06:10.999Z,45.20
2022-08-17T11:07:11.252Z,45.30
2022-08-17T11:08:11.500Z,45.20
2022-08-17T11:09:11.753Z,45.30
2022-08-17T11:10:12.130Z,45.30
2022-08-17T11:11:12.251Z,45.40
2022-08-17T11:12:12.512Z,45.40
2022-08-17T11:13:12.760Z,45.40
2022-08-17T11:14:13.012Z,45.30
2022-08-17T11:15:13.263Z,45.30
2022-08-17T11:16:13.513Z,45.30
2022-08-17T11:17:13.771Z,45.40
2022-08-17T11:18:13.997Z,45.30
2022-08-17T11:19:14.252Z,45.30
2022-08-17T11:20:14.516Z,45.40
2022-08-17T11:21:14.784Z,45.40
2022-08-17T11:22:15.038Z,45.40
2022-08-17T11:23:15.286Z,45.30
2022-08-17T11:24:15.546Z,45.20
2022-08-17T11:25:15.805Z,45.30
2022-08-17T11:26:16.055Z,45.30
2022-08-17T11:27:16.317Z,45.20
2022-08-17T11:28:18.048Z,45.01
2022-08-17T11:29:16.838Z,44.91
2022-08-17T11:30:17.349Z,44.81
2022-08-17T11:31:17.337Z,44.81
2022-08-17T11:32:17.589Z,44.81
2022-08-17T11:33:17.838Z,44.91
2022-08-17T11:34:18.098Z,44.61
2022-08-17T11:35:18.419Z,44.32
2022-08-17T11:36:18.679Z,44.12
2022-08-17T11:37:18.937Z,44.02
2022-08-17T11:38:19.189Z,44.12
2022-08-17T11:39:19.472Z,44.12
2022-08-17T11:40:19.857Z,44.22
2022-08-17T11:41:20.072Z,44.22
2022-08-17T11:42:20.330Z,44.42
2022-08-17T11:43:20.582Z,44.51
2022-08-17T11:44:21.822Z,44.61
2022-08-17T11:45:32.546Z,44.61
2022-08-17T11:46:22.422Z,44.61
2022-08-17T11:47:21.731Z,44.81
2022-08-17T11:48:28.238Z,44.91
2022-08-17T11:49:23.323Z,44.81
2022-08-17T11:50:27.576Z,44.81
2022-08-17T11:51:23.812Z,44.81
2022-08-17T11:52:23.116Z,44.81
2022-08-17T11:53:23.372Z,44.91
2022-08-17T11:54:32.916Z,44.81
2022-08-17T11:55:35.526Z,45.10
2022-08-17T11:56:25.141Z,45.10
2022-08-17T11:57:24.458Z,45.01
2022-08-17T11:58:24.734Z,45.01
2022-08-17T11:59:24.995Z,45.01
2022-08-17T12:00:25.247Z,44.91
2022-08-17T12:01:25.496Z,44.91
2022-08-17T12:02:25.758Z,44.81
2022-08-17T12:03:26.112Z,44.81
2022-08-17T12:04:26.456Z,44.71
2022-08-17T12:05:26.728Z,44.61
2022-08-17T12:06:30.506Z,44.71
2022-08-17T12:07:27.329Z,44.71
2022-08-17T12:08:27.581Z,44.91
2022-08-17T12:09:27.840Z,44.81
2022-08-17T12:10:28.097Z,44.91
2022-08-17T12:11:56.359Z,44.71
2022-08-17T12:12:29.581Z,44.81
2022-08-17T12:13:35.177Z,44.81
2022-08-17T12:14:51.678Z,44.71
2022-08-17T12:15:30.411Z,44.71
2022-08-17T12:16:29.723Z,44.61
2022-08-17T12:17:40.218Z,44.51
2022-08-17T12:18:31.233Z,44.51
2022-08-17T12:19:30.544Z,44.51
2022-08-17T12:20:30.814Z,44.51
2022-08-17T12:21:31.063Z,44.61
2022-08-17T12:22:31.324Z,44.51
2022-08-17T12:23:31.584Z,44.42
2022-08-17T12:24:31.839Z,44.32
2022-08-17T12:25:32.087Z,44.42
2022-08-17T12:26:32.356Z,44.32
2022-08-17T12:27:48.955Z,44.32
2022-08-17T12:28:33.839Z,44.32
2022-08-17T12:29:35.718Z,44.32
2022-08-17T12:30:34.388Z,44.22
2022-08-17T12:31:33.698Z,44.32
2022-08-17T12:32:33.957Z,44.32
2022-08-17T12:33:34.208Z,44.32
2022-08-17T12:34:34.458Z,44.22
2022-08-17T12:35:34.719Z,44.22
2022-08-17T12:36:34.969Z,44.32
2022-08-17T12:37:35.271Z,44.32
2022-08-17T12:38:35.510Z,44.22
2022-08-17T12:39:35.816Z,43.92
2022-08-17T12:40:36.094Z,44.12
2022-08-17T12:41:36.359Z,44.12
2022-08-17T12:42:36.598Z,44.02
2022-08-17T12:43:36.851Z,44.02
2022-08-17T12:44:37.111Z,44.02
2022-08-17T12:45:38.352Z,44.02
2022-08-17T12:46:37.660Z,44.12
2022-08-17T12:47:37.933Z,44.12
2022-08-17T12:48:38.183Z,44.12
2022-08-17T12:49:38.443Z,44.12
2022-08-17T12:50:38.767Z,44.12
2022-08-17T12:51:39.025Z,44.22
2022-08-17T12:52:39.276Z,44.12
2022-08-17T12:53:39.524Z,44.02
2022-08-17T12:54:39.774Z,44.02
2022-08-17T12:55:40.035Z,44.02
2022-08-17T12:56:40.285Z,44.02
2022-08-17T12:57:40.535Z,43.92
2022-08-17T12:58:40.787Z,43.73
2022-08-17T12:59:41.036Z,43.92
2022-08-17T13:00:41.305Z,43.82
2022-08-17T13:01:42.582Z,43.92
2022-08-17T13:02:41.789Z,43.43
2022-08-17T13:03:42.045Z,43.03
2022-08-17T13:04:42.339Z,43.03
2022-08-17T13:05:42.598Z,43.03
2022-08-17T13:06:42.859Z,43.13
2022-08-17T13:07:43.131Z,43.11
2022-08-17T13:08:43.418Z,43.11
2022-08-17T13:09:43.684Z,43.31
2022-08-17T13:10:43.956Z,43.31
2022-08-17T13:11:44.190Z,43.41
2022-08-17T13:12:44.539Z,43.60
2022-08-17T13:13:44.780Z,43.51
2022-08-17T13:14:45.032Z,43.51
2022-08-17T13:15:45.303Z,43.51
2022-08-17T13:16:45.550Z,43.51
2022-08-17T13:17:45.887Z,43.51
2022-08-17T13:18:46.123Z,43.60
2022-08-17T13:19:46.375Z,43.70
2022-08-17T13:20:46.644Z,43.60
2022-08-17T13:21:46.902Z,43.60
2022-08-17T13:22:47.152Z,43.60
2022-08-17T13:23:53.612Z,43.60
2022-08-17T13:24:48.725Z,43.60
2022-08-17T13:25:48.036Z,43.60
2022-08-17T13:26:48.265Z,43.51
2022-08-17T13:27:48.783Z,43.51
2022-08-17T13:28:48.796Z,43.51
2022-08-17T13:29:51.521Z,43.51
2022-08-17T13:30:49.347Z,43.60
2022-08-17T13:31:52.801Z,43.60
2022-08-17T13:32:50.828Z,43.51
2022-08-17T13:33:50.150Z,43.21
2022-08-17T13:35:14.172Z,43.31
2022-08-17T13:35:51.639Z,43.21
2022-08-17T13:36:50.904Z,43.21
2022-08-17T13:37:51.397Z,43.31
2022-08-17T13:38:51.461Z,43.31
2022-08-17T13:39:51.786Z,43.21
2022-08-17T13:40:52.055Z,43.31
2022-08-17T13:41:52.311Z,43.31
2022-08-17T13:42:54.033Z,43.21
2022-08-17T13:43:52.891Z,43.21
2022-08-17T13:44:53.151Z,43.01
2022-08-17T13:45:53.401Z,43.11
2022-08-17T13:46:57.099Z,43.01
2022-08-17T13:47:53.912Z,43.01
2022-08-17T13:48:54.163Z,42.91
2022-08-17T13:49:54.414Z,42.72
2022-08-17T13:50:54.682Z,42.42
2022-08-17T13:51:54.948Z,42.13
2022-08-17T13:52:55.185Z,42.02
2022-08-17T13:53:55.435Z,42.02
2022-08-17T13:54:55.745Z,42.20
2022-08-17T13:55:55.939Z,42.40
2022-08-17T13:56:56.198Z,42.30
2022-08-17T13:58:03.911Z,42.40
2022-08-17T13:58:57.697Z,42.40
2022-08-17T13:59:57.019Z,42.42
2022-08-17T14:00:57.277Z,42.42
2022-08-17T14:01:57.583Z,42.42
2022-08-17T14:02:57.858Z,42.42